Time;durP1;ratioP1;P1;durP2;ratioP2;P2;SDS_P1;SDS_P2;PMS_P1;PMS_P2;Temp;Humidity;BMP_temperature;BMP_pressure;BME280_temperature;BME280_humidity;BME280_pressure;Samples;Min_cycle;Max_cycle;Signal;HPM_P1;HPM_P2
2022/06/30 00:02:09;;;;;;;23.60;11.35;;;;;;;;;;7331446;19;154274;-17
2022/06/30 00:04:40;;;;;;;24.65;12.25;;;;;;;;;;7334404;19;153750;-16
2022/06/30 00:07:14;;;;;;;20.65;10.02;;;;;;;;;;7334019;19;161729;-17
2022/06/30 00:09:45;;;;;;;23.15;11.23;;;;;;;;;;7333887;19;162420;-17
2022/06/30 00:12:17;;;;;;;24.73;12.95;;;;;;;;;;7330721;19;154035;-17
2022/06/30 00:14:48;;;;;;;24.40;12.57;;;;;;;;;;7332714;19;153713;-17
2022/06/30 00:17:19;;;;;;;13.77;4.53;;;;;;;;;;7333928;19;162035;-17
2022/06/30 00:19:51;;;;;;;11.93;4.90;;;;;;;;;;7332708;19;162453;-17
2022/06/30 00:22:26;;;;;;;12.38;4.65;;;;;;;;;;7334825;19;154076;-17
2022/06/30 00:24:58;;;;;;;10.75;4.97;;;;;;;;;;7333246;19;153838;-17
2022/06/30 00:27:30;;;;;;;19.67;5.85;;;;;;;;;;7334423;19;161878;-17
2022/06/30 00:30:02;;;;;;;16.17;6.25;;;;;;;;;;7334447;19;162562;-17
2022/06/30 00:32:34;;;;;;;11.20;5.10;;;;;;;;;;7331279;19;154433;-17
2022/06/30 00:35:07;;;;;;;14.48;5.63;;;;;;;;;;7332003;19;153508;-16
2022/06/30 00:37:42;;;;;;;12.35;5.93;;;;;;;;;;7334955;19;161941;-17
2022/06/30 00:40:14;;;;;;;14.15;5.47;;;;;;;;;;7332740;19;162451;-15
2022/06/30 00:42:46;;;;;;;13.77;5.57;;;;;;;;;;7334397;19;153994;-17
2022/06/30 00:45:18;;;;;;;16.13;6.50;;;;;;;;;;7334228;19;153636;-16
2022/06/30 00:47:50;;;;;;;12.27;5.43;;;;;;;;;;7333488;19;162262;-16
2022/06/30 00:50:22;;;;;;;13.43;5.88;;;;;;;;;;7333303;19;162332;-15
2022/06/30 00:52:56;;;;;;;10.65;5.43;;;;;;;;;;7329821;19;154084;-15
2022/06/30 00:55:28;;;;;;;12.55;5.57;;;;;;;;;;7332956;19;153575;-16
2022/06/30 00:58:03;;;;;;;10.43;5.78;;;;;;;;;;7332827;19;161825;-16
2022/06/30 01:00:38;;;;;;;13.68;5.88;;;;;;;;;;7332658;19;162405;-16
2022/06/30 01:03:11;;;;;;;12.98;5.68;;;;;;;;;;7332857;19;154405;-15
2022/06/30 01:05:43;;;;;;;12.52;6.05;;;;;;;;;;7331743;19;153581;-16
2022/06/30 01:08:18;;;;;;;12.67;4.87;;;;;;;;;;7332595;19;161829;-15
2022/06/30 01:13:34;;;;;;;12.77;5.85;;;;;;;;;;7331938;19;154140;-15
2022/06/30 01:16:05;;;;;;;11.90;5.45;;;;;;;;;;7332658;19;153510;-16
2022/06/30 01:18:37;;;;;;;11.60;5.82;;;;;;;;;;7332073;19;161629;-15
2022/06/30 01:21:09;;;;;;;8.73;5.28;;;;;;;;;;7332040;19;162386;-15
2022/06/30 01:23:43;;;;;;;10.35;5.88;;;;;;;;;;7332502;19;154545;-16
2022/06/30 01:26:14;;;;;;;11.13;5.25;;;;;;;;;;7331752;19;153914;-16
2022/06/30 01:28:45;;;;;;;9.75;5.18;;;;;;;;;;7331907;19;161847;-15
2022/06/30 01:31:16;;;;;;;11.23;5.57;;;;;;;;;;7331459;19;162144;-16
2022/06/30 01:33:47;;;;;;;11.57;5.22;;;;;;;;;;7330879;19;153980;-16
2022/06/30 01:36:19;;;;;;;9.38;4.95;;;;;;;;;;7336329;19;153795;-16
2022/06/30 01:38:56;;;;;;;9.90;5.80;;;;;;;;;;7330448;19;133682;-16
2022/06/30 01:41:27;;;;;;;10.10;4.95;;;;;;;;;;7331343;19;162505;-16
2022/06/30 01:43:58;;;;;;;12.27;5.47;;;;;;;;;;7330335;19;154023;-16
2022/06/30 01:46:29;;;;;;;11.40;5.70;;;;;;;;;;7335322;19;153770;-16
2022/06/30 01:49:01;;;;;;;11.65;5.38;;;;;;;;;;7334026;19;161823;-15
2022/06/30 01:51:32;;;;;;;11.63;5.30;;;;;;;;;;7333986;19;162385;-16
2022/06/30 01:54:06;;;;;;;9.57;5.40;;;;;;;;;;7334987;19;154030;-16
2022/06/30 01:56:37;;;;;;;12.80;5.75;;;;;;;;;;7333993;19;154275;-16
2022/06/30 01:59:09;;;;;;;14.65;5.18;;;;;;;;;;7335026;19;161811;-15
2022/06/30 02:01:40;;;;;;;8.20;4.53;;;;;;;;;;7330963;19;162353;-16
2022/06/30 02:06:55;;;;;;;8.07;3.78;;;;;;;;;;7331120;19;153330;-15
2022/06/30 02:09:29;;;;;;;10.27;3.67;;;;;;;;;;7329845;19;161883;-16
2022/06/30 02:14:43;;;;;;;7.38;3.88;;;;;;;;;;7330794;19;154087;-15
2022/06/30 02:17:14;;;;;;;8.10;3.40;;;;;;;;;;7330603;19;153561;-16
2022/06/30 02:19:46;;;;;;;6.38;2.65;;;;;;;;;;7330591;19;162333;-16
2022/06/30 02:22:17;;;;;;;7.80;3.05;;;;;;;;;;7330208;19;162496;-16
2022/06/30 02:24:51;;;;;;;6.18;2.63;;;;;;;;;;7328322;19;154297;-16
2022/06/30 02:27:24;;;;;;;10.23;2.70;;;;;;;;;;7330368;19;153545;-16
2022/06/30 02:29:55;;;;;;;4.57;2.25;;;;;;;;;;7330096;19;161965;-15
2022/06/30 02:32:27;;;;;;;7.05;2.58;;;;;;;;;;7329343;19;162387;-16
2022/06/30 02:34:58;;;;;;;6.50;2.25;;;;;;;;;;7329028;19;154518;-16
2022/06/30 02:37:29;;;;;;;6.05;2.55;;;;;;;;;;7330166;19;153631;-15
2022/06/30 02:40:03;;;;;;;5.75;2.15;;;;;;;;;;7329842;19;161840;-17
2022/06/30 02:42:35;;;;;;;5.70;2.15;;;;;;;;;;7329578;19;162645;-15
2022/06/30 02:45:08;;;;;;;5.30;2.47;;;;;;;;;;7328932;19;154049;-15
2022/06/30 02:47:40;;;;;;;4.50;2.15;;;;;;;;;;7330128;19;153792;-15
2022/06/30 02:50:13;;;;;;;9.57;2.42;;;;;;;;;;7329790;19;161809;-15
2022/06/30 02:52:44;;;;;;;6.85;2.40;;;;;;;;;;7327442;19;162405;-16
2022/06/30 02:55:18;;;;;;;7.68;2.30;;;;;;;;;;7329776;19;154520;-15
2022/06/30 02:57:50;;;;;;;6.90;2.80;;;;;;;;;;7328655;19;153704;-15
2022/06/30 03:00:22;;;;;;;4.72;2.20;;;;;;;;;;7329227;19;161803;-16
2022/06/30 03:02:53;;;;;;;7.73;2.60;;;;;;;;;;7329161;19;162540;-16
2022/06/30 03:05:24;;;;;;;6.43;2.33;;;;;;;;;;7332295;19;154018;-16
2022/06/30 03:07:55;;;;;;;4.40;2.25;;;;;;;;;;7329321;19;153567;-20
2022/06/30 03:10:29;;;;;;;8.00;2.20;;;;;;;;;;7329028;19;161842;-16
2022/06/30 03:13:00;;;;;;;4.28;2.00;;;;;;;;;;7327838;19;162316;-15
2022/06/30 03:15:32;;;;;;;7.20;2.25;;;;;;;;;;7329480;19;154001;-16
2022/06/30 03:18:03;;;;;;;3.95;1.98;;;;;;;;;;7329058;19;153616;-15
2022/06/30 03:20:35;;;;;;;7.13;1.80;;;;;;;;;;7328650;19;162140;-16
2022/06/30 03:23:06;;;;;;;5.28;2.20;;;;;;;;;;7328828;19;162512;-15
2022/06/30 03:25:40;;;;;;;4.18;1.73;;;;;;;;;;7328968;19;154347;-15
2022/06/30 03:28:11;;;;;;;6.95;1.95;;;;;;;;;;7327537;19;153667;-16
2022/06/30 03:30:45;;;;;;;6.40;1.98;;;;;;;;;;7328255;19;161886;-15
2022/06/30 03:33:16;;;;;;;6.68;2.22;;;;;;;;;;7326085;19;162543;-15
2022/06/30 03:35:48;;;;;;;5.00;2.28;;;;;;;;;;7334307;19;154091;-15
2022/06/30 03:38:19;;;;;;;4.28;1.85;;;;;;;;;;7335462;19;154236;-16
2022/06/30 03:40:53;;;;;;;4.93;1.98;;;;;;;;;;7334885;19;161975;-15
2022/06/30 03:43:24;;;;;;;4.03;2.05;;;;;;;;;;7333659;19;162550;-16
2022/06/30 03:45:55;;;;;;;3.47;1.92;;;;;;;;;;7335364;19;154016;-15
2022/06/30 03:48:26;;;;;;;3.35;1.77;;;;;;;;;;7335227;19;153228;-15
2022/06/30 03:50:58;;;;;;;5.28;2.15;;;;;;;;;;7334630;19;161893;-16
2022/06/30 03:53:29;;;;;;;2.45;1.50;;;;;;;;;;7333966;19;162372;-15
2022/06/30 03:56:03;;;;;;;3.83;1.60;;;;;;;;;;7333727;19;154126;-15
2022/06/30 03:58:34;;;;;;;4.05;1.73;;;;;;;;;;7334992;19;154189;-16
2022/06/30 04:01:05;;;;;;;4.55;1.73;;;;;;;;;;7334220;19;161962;-16
2022/06/30 04:03:36;;;;;;;2.97;1.70;;;;;;;;;;7334074;19;162547;-15
2022/06/30 04:06:08;;;;;;;4.65;1.60;;;;;;;;;;7338926;19;153753;-15
2022/06/30 04:08:39;;;;;;;6.20;1.73;;;;;;;;;;7334300;19;154661;-16
2022/06/30 04:11:13;;;;;;;3.80;1.67;;;;;;;;;;7332655;19;162054;-16
2022/06/30 04:13:44;;;;;;;3.38;1.80;;;;;;;;;;7333131;19;162425;-16
2022/06/30 04:16:15;;;;;;;4.35;1.33;;;;;;;;;;7334040;19;154013;-16
2022/06/30 04:18:47;;;;;;;3.92;1.65;;;;;;;;;;7334093;19;153540;-16
2022/06/30 04:21:18;;;;;;;3.72;1.45;;;;;;;;;;7332896;19;162147;-15
2022/06/30 04:23:49;;;;;;;3.10;1.55;;;;;;;;;;7332467;19;162112;-15
2022/06/30 04:26:23;;;;;;;4.22;1.30;;;;;;;;;;7333897;19;154027;-15
2022/06/30 04:28:54;;;;;;;2.40;1.33;;;;;;;;;;7332740;19;153915;-16
2022/06/30 04:34:09;;;;;;;7.68;1.90;;;;;;;;;;7334833;19;162512;-16
2022/06/30 04:36:40;;;;;;;5.22;1.73;;;;;;;;;;7332365;19;154220;-16
2022/06/30 04:39:11;;;;;;;5.80;1.83;;;;;;;;;;7333470;19;153576;-17
2022/06/30 04:41:42;;;;;;;3.10;1.88;;;;;;;;;;7333035;19;161781;-18
2022/06/30 04:44:13;;;;;;;3.13;1.85;;;;;;;;;;7333104;19;162407;-17
2022/06/30 04:46:45;;;;;;;9.90;1.85;;;;;;;;;;7332318;19;154087;-17
2022/06/30 04:49:16;;;;;;;2.60;1.35;;;;;;;;;;7332123;19;153654;-17
2022/06/30 04:51:47;;;;;;;5.03;1.83;;;;;;;;;;7332870;19;161838;-17
2022/06/30 04:54:18;;;;;;;2.40;1.27;;;;;;;;;;7331664;19;162419;-17
2022/06/30 04:56:53;;;;;;;3.72;1.48;;;;;;;;;;7331866;19;154293;-17
2022/06/30 04:59:24;;;;;;;6.55;1.83;;;;;;;;;;7332911;19;153701;-17
2022/06/30 05:01:55;;;;;;;4.07;1.58;;;;;;;;;;7332470;19;161913;-17
2022/06/30 05:04:26;;;;;;;6.90;1.77;;;;;;;;;;7333497;19;162651;-17
2022/06/30 05:06:57;;;;;;;6.50;1.33;;;;;;;;;;7332790;19;154093;-17
2022/06/30 05:09:28;;;;;;;3.60;1.55;;;;;;;;;;7331710;19;153569;-17
2022/06/30 05:12:02;;;;;;;4.68;1.90;;;;;;;;;;7332179;19;162010;-17
2022/06/30 05:14:33;;;;;;;3.85;1.67;;;;;;;;;;7331011;19;162423;-17
2022/06/30 05:17:05;;;;;;;5.30;1.67;;;;;;;;;;7332375;19;154011;-17
2022/06/30 05:19:36;;;;;;;3.47;1.40;;;;;;;;;;7332358;19;153497;-17
2022/06/30 05:22:08;;;;;;;3.60;1.48;;;;;;;;;;7331927;19;162115;-17
2022/06/30 05:27:25;;;;;;;4.00;1.20;;;;;;;;;;7335573;19;153986;-17
2022/06/30 05:29:56;;;;;;;4.55;2.00;;;;;;;;;;7331985;19;153498;-17
2022/06/30 05:32:28;;;;;;;2.83;1.40;;;;;;;;;;7331748;19;162033;-17
2022/06/30 05:34:59;;;;;;;6.00;1.88;;;;;;;;;;7330495;19;162500;-17
2022/06/30 05:37:30;;;;;;;8.25;1.83;;;;;;;;;;7335237;19;154034;-17
2022/06/30 05:40:02;;;;;;;4.47;1.63;;;;;;;;;;7331578;19;153610;-17
2022/06/30 05:42:35;;;;;;;7.15;1.50;;;;;;;;;;7333654;19;161873;-17
2022/06/30 05:45:08;;;;;;;5.40;1.63;;;;;;;;;;7334366;19;162684;-17
2022/06/30 05:47:47;;;;;;;3.77;1.30;;;;;;;;;;7334917;19;154028;-17
2022/06/30 05:50:19;;;;;;;4.05;1.60;;;;;;;;;;7333986;19;153481;-17
2022/06/30 05:52:51;;;;;;;6.00;1.67;;;;;;;;;;7332322;19;161750;-17
2022/06/30 05:55:23;;;;;;;6.68;1.92;;;;;;;;;;7323865;19;162774;-17
2022/06/30 05:57:58;;;;;;;4.88;1.60;;;;;;;;;;7327326;19;154027;-17
2022/06/30 06:00:31;;;;;;;4.70;1.38;;;;;;;;;;7326511;19;153503;-17
2022/06/30 06:03:03;;;;;;;5.22;1.67;;;;;;;;;;7328454;19;161836;-17
2022/06/30 06:05:34;;;;;;;4.65;1.58;;;;;;;;;;7328605;19;162469;-17
2022/06/30 06:08:22;;;;;;;6.15;1.50;;;;;;;;;;7329070;19;154371;-17
2022/06/30 06:10:54;;;;;;;3.20;1.50;;;;;;;;;;7330865;19;153553;-17
2022/06/30 06:13:27;;;;;;;4.57;1.40;;;;;;;;;;7329206;19;161893;-17
2022/06/30 06:15:59;;;;;;;5.75;1.85;;;;;;;;;;7329283;19;162523;-16
2022/06/30 06:18:30;;;;;;;5.93;2.15;;;;;;;;;;7330360;19;154019;-18
2022/06/30 06:21:01;;;;;;;6.30;1.80;;;;;;;;;;7330292;19;153634;-17
2022/06/30 06:23:49;;;;;;;5.63;1.45;;;;;;;;;;7329807;19;162060;-17
2022/06/30 06:26:20;;;;;;;5.45;1.23;;;;;;;;;;7329885;19;162541;-17
2022/06/30 06:29:09;;;;;;;4.10;1.63;;;;;;;;;;7334356;19;154033;-17
2022/06/30 06:31:42;;;;;;;4.25;1.40;;;;;;;;;;7330134;19;153525;-17
2022/06/30 06:34:13;;;;;;;4.20;1.83;;;;;;;;;;7326816;19;161994;-17
2022/06/30 06:36:44;;;;;;;4.43;1.45;;;;;;;;;;7327435;19;162295;-17
2022/06/30 06:39:16;;;;;;;5.30;1.70;;;;;;;;;;7330255;19;154029;-17
2022/06/30 06:41:47;;;;;;;5.40;1.42;;;;;;;;;;7330149;19;153559;-17
2022/06/30 06:44:21;;;;;;;3.92;1.55;;;;;;;;;;7329690;19;161715;-17
2022/06/30 06:46:52;;;;;;;3.08;1.42;;;;;;;;;;7329562;19;162691;-17
2022/06/30 06:49:23;;;;;;;2.65;1.42;;;;;;;;;;7329957;19;154023;-17
2022/06/30 06:51:55;;;;;;;3.28;1.52;;;;;;;;;;7329770;19;153586;-18
2022/06/30 06:54:26;;;;;;;4.65;1.60;;;;;;;;;;7329120;19;162012;-17
2022/06/30 06:56:57;;;;;;;4.30;1.77;;;;;;;;;;7326362;19;162161;-17
2022/06/30 06:59:34;;;;;;;4.00;1.58;;;;;;;;;;7329431;19;154035;-17
2022/06/30 07:02:05;;;;;;;3.28;1.77;;;;;;;;;;7329291;19;153538;-18
2022/06/30 07:04:36;;;;;;;4.13;1.60;;;;;;;;;;7329058;19;161868;-18
2022/06/30 07:07:07;;;;;;;2.97;1.45;;;;;;;;;;7329142;19;162495;-17
2022/06/30 07:09:39;;;;;;;5.38;1.42;;;;;;;;;;7328894;19;154121;-17
2022/06/30 07:12:11;;;;;;;6.53;2.00;;;;;;;;;;7329094;19;153654;-17
2022/06/30 07:14:45;;;;;;;4.00;1.67;;;;;;;;;;7327549;19;161884;-17
2022/06/30 07:17:16;;;;;;;5.22;1.65;;;;;;;;;;7326022;19;162371;-16
2022/06/30 07:19:47;;;;;;;6.80;1.85;;;;;;;;;;7329290;19;154109;-16
2022/06/30 07:22:19;;;;;;;2.53;1.30;;;;;;;;;;7328520;19;153511;-17
2022/06/30 07:24:50;;;;;;;5.35;1.30;;;;;;;;;;7328407;19;161787;-16
2022/06/30 07:27:21;;;;;;;5.60;1.70;;;;;;;;;;7328435;19;162608;-17
2022/06/30 07:29:55;;;;;;;7.20;1.77;;;;;;;;;;7328406;19;154063;-16
2022/06/30 07:32:27;;;;;;;8.50;1.73;;;;;;;;;;7328655;19;153634;-16
2022/06/30 07:34:59;;;;;;;6.93;1.83;;;;;;;;;;7325699;19;161903;-16
2022/06/30 07:37:30;;;;;;;6.10;1.88;;;;;;;;;;7326603;19;162478;-17
2022/06/30 07:40:01;;;;;;;10.15;2.08;;;;;;;;;;7328607;19;154157;-16
2022/06/30 07:42:35;;;;;;;5.90;1.83;;;;;;;;;;7328796;19;153229;-17
2022/06/30 07:45:10;;;;;;;9.00;1.88;;;;;;;;;;7327933;19;162336;-16
2022/06/30 07:47:43;;;;;;;5.50;2.00;;;;;;;;;;7327738;19;162379;-16
2022/06/30 07:50:14;;;;;;;5.07;1.97;;;;;;;;;;7327915;19;154043;-16
2022/06/30 07:52:46;;;;;;;6.47;2.05;;;;;;;;;;7327586;19;153499;-16
2022/06/30 07:55:17;;;;;;;5.32;1.95;;;;;;;;;;7326751;19;161884;-16
2022/06/30 07:57:49;;;;;;;7.00;2.40;;;;;;;;;;7324488;19;162786;-16
2022/06/30 08:00:24;;;;;;;6.60;1.52;;;;;;;;;;7327581;19;154032;-16
2022/06/30 08:02:55;;;;;;;8.98;2.22;;;;;;;;;;7326451;19;153461;-16
2022/06/30 08:05:26;;;;;;;9.27;1.83;;;;;;;;;;7330112;19;163247;-16
2022/06/30 08:07:58;;;;;;;10.05;2.00;;;;;;;;;;7328729;19;162162;-16
2022/06/30 08:10:29;;;;;;;5.72;2.03;;;;;;;;;;7328578;19;154047;-16
2022/06/30 08:13:00;;;;;;;7.63;1.85;;;;;;;;;;7330135;19;153621;-16
2022/06/30 08:15:34;;;;;;;5.47;2.17;;;;;;;;;;7327542;19;161964;-20
2022/06/30 08:18:06;;;;;;;9.20;2.08;;;;;;;;;;7326866;19;162412;-16
2022/06/30 08:20:37;;;;;;;4.38;1.90;;;;;;;;;;7328350;19;154128;-16
2022/06/30 08:23:09;;;;;;;5.55;1.90;;;;;;;;;;7329518;19;153675;-15
2022/06/30 08:25:40;;;;;;;5.68;1.75;;;;;;;;;;7333131;19;161881;-16
2022/06/30 08:28:11;;;;;;;3.80;1.70;;;;;;;;;;7333454;19;162417;-15
2022/06/30 08:30:46;;;;;;;7.50;2.13;;;;;;;;;;7334299;19;154247;-16
2022/06/30 08:33:17;;;;;;;7.78;1.77;;;;;;;;;;7332847;19;153580;-16
2022/06/30 08:35:48;;;;;;;3.70;1.88;;;;;;;;;;7333397;19;161867;-16
2022/06/30 08:38:29;;;;;;;5.70;1.77;;;;;;;;;;7330518;19;162447;-16
2022/06/30 08:43:45;;;;;;;7.20;2.10;;;;;;;;;;7333535;19;153591;-16
2022/06/30 08:46:22;;;;;;;5.13;1.42;;;;;;;;;;7333177;19;161797;-16
2022/06/30 08:48:54;;;;;;;4.10;1.30;;;;;;;;;;7332999;19;162334;-17
2022/06/30 08:51:25;;;;;;;6.30;2.13;;;;;;;;;;7333210;19;154307;-17
2022/06/30 08:54:00;;;;;;;6.10;2.03;;;;;;;;;;7333133;19;153520;-17
2022/06/30 08:56:34;;;;;;;5.03;1.98;;;;;;;;;;7332732;19;161820;-17
2022/06/30 08:59:07;;;;;;;3.42;1.63;;;;;;;;;;7331711;19;162569;-17
2022/06/30 09:01:41;;;;;;;2.45;1.30;;;;;;;;;;7333172;19;154000;-16
2022/06/30 09:04:14;;;;;;;4.60;1.77;;;;;;;;;;7333108;19;153694;-16
2022/06/30 09:06:46;;;;;;;5.25;1.92;;;;;;;;;;7332645;19;162277;-16
2022/06/30 09:09:18;;;;;;;4.87;1.70;;;;;;;;;;7336235;19;162352;-17
2022/06/30 09:11:51;;;;;;;7.45;1.67;;;;;;;;;;7332891;19;154072;-17
2022/06/30 09:14:37;;;;;;;4.57;1.80;;;;;;;;;;7331408;19;153516;-17
2022/06/30 09:17:14;;;;;;;3.50;1.45;;;;;;;;;;7334891;19;161855;-17
2022/06/30 09:19:57;;;;;;;5.78;1.90;;;;;;;;;;7332295;19;162429;-17
2022/06/30 09:22:30;;;;;;;6.15;1.80;;;;;;;;;;7332815;19;153850;-17
2022/06/30 09:25:05;;;;;;;3.50;1.30;;;;;;;;;;7335195;19;153635;-28
2022/06/30 09:27:38;;;;;;;5.75;1.90;;;;;;;;;;7334866;19;161806;-17
2022/06/30 09:30:12;;;;;;;6.40;1.40;;;;;;;;;;7331802;19;162495;-17
2022/06/30 09:32:52;;;;;;;5.47;1.60;;;;;;;;;;7330838;19;154112;-17
2022/06/30 09:35:25;;;;;;;7.13;2.00;;;;;;;;;;7332292;19;153848;-16
2022/06/30 09:38:00;;;;;;;;;;;;;;;;;;7331247;19;161867;-17
2022/06/30 09:40:33;;;;;;;4.18;1.58;;;;;;;;;;7335921;19;162779;-17
2022/06/30 09:43:07;;;;;;;2.83;1.48;;;;;;;;;;7331934;19;154032;-17
2022/06/30 09:45:42;;;;;;;4.30;1.42;;;;;;;;;;7331844;19;153399;-17
2022/06/30 09:48:16;;;;;;;7.15;1.73;;;;;;;;;;7331510;19;162055;-17
2022/06/30 09:50:59;;;;;;;4.32;1.40;;;;;;;;;;7331503;19;162550;-17
2022/06/30 09:53:30;;;;;;;4.28;1.60;;;;;;;;;;7331593;19;154297;-17
2022/06/30 09:56:13;;;;;;;4.03;1.40;;;;;;;;;;7331497;19;153549;-17
2022/06/30 09:58:46;;;;;;;;;;;;;;;;;;7329534;19;162076;-17
2022/06/30 10:01:18;;;;;;;6.13;1.80;;;;;;;;;;7329944;19;162683;-17
2022/06/30 10:04:01;;;;;;;6.40;1.50;;;;;;;;;;7330087;19;153946;-17
2022/06/30 10:06:33;;;;;;;6.95;1.90;;;;;;;;;;7330025;19;153710;-17
2022/06/30 10:09:04;;;;;;;9.02;1.85;;;;;;;;;;7330573;19;161952;-16
2022/06/30 10:11:36;;;;;;;5.07;1.57;;;;;;;;;;7330316;19;162431;-16
2022/06/30 10:14:10;;;;;;;6.23;1.50;;;;;;;;;;7330844;19;154308;-17
2022/06/30 10:16:44;;;;;;;10.23;1.88;;;;;;;;;;7333004;19;153592;-16
2022/06/30 10:19:19;;;;;;;4.63;1.38;;;;;;;;;;7328163;19;162182;-17
2022/06/30 10:21:51;;;;;;;4.88;1.75;;;;;;;;;;7330460;19;162367;-16
2022/06/30 10:24:23;;;;;;;3.93;1.37;;;;;;;;;;7330878;19;153970;-16
2022/06/30 10:29:42;;;;;;;10.48;1.95;;;;;;;;;;7331131;19;161931;-15
2022/06/30 10:32:23;;;;;;;6.28;1.88;;;;;;;;;;7330242;19;162304;-15
2022/06/30 10:35:05;;;;;;;5.03;1.88;;;;;;;;;;7327544;19;153977;-16
2022/06/30 10:37:43;;;;;;;6.53;2.03;;;;;;;;;;7334161;19;155176;-16
2022/06/30 10:40:24;;;;;;;5.55;1.77;;;;;;;;;;7330042;19;162282;-15
2022/06/30 10:43:00;;;;;;;5.45;1.90;;;;;;;;;;7329917;19;162389;-15
2022/06/30 10:46:00;;;;;;;4.57;1.75;;;;;;;;;;7328272;19;154029;-16
2022/06/30 10:48:53;;;;;;;9.48;1.88;;;;;;;;;;7330201;19;153520;-16
2022/06/30 10:51:29;;;;;;;4.85;1.70;;;;;;;;;;7329765;19;162543;-15
2022/06/30 10:54:01;;;;;;;4.95;1.40;;;;;;;;;;7329388;19;163036;-15
2022/06/30 10:57:05;;;;;;;4.82;1.70;;;;;;;;;;7330096;19;154052;-15
2022/06/30 10:59:41;;;;;;;4.55;1.60;;;;;;;;;;7327379;19;153502;-15
2022/06/30 11:02:26;;;;;;;9.43;1.80;;;;;;;;;;7329128;19;161894;-15
2022/06/30 11:05:26;;;;;;;5.43;1.50;;;;;;;;;;7329334;19;163017;-15
2022/06/30 11:08:00;;;;;;;5.28;1.92;;;;;;;;;;7328341;19;154019;-15
2022/06/30 11:10:32;;;;;;;6.68;1.60;;;;;;;;;;7328168;19;153652;-15
2022/06/30 11:13:09;;;;;;;4.18;1.85;;;;;;;;;;7328963;19;161849;-16
2022/06/30 11:16:00;;;;;;;4.97;1.58;;;;;;;;;;7328439;19;162448;-15
2022/06/30 11:18:36;;;;;;;2.70;1.30;;;;;;;;;;7328164;19;155723;-22
2022/06/30 11:21:07;;;;;;;4.88;1.77;;;;;;;;;;7328803;19;153735;-16
2022/06/30 11:23:45;;;;;;;2.97;1.42;;;;;;;;;;7328330;19;161846;-16
2022/06/30 11:29:06;;;;;;;5.10;1.52;;;;;;;;;;7327215;19;154265;-16
2022/06/30 11:31:39;;;;;;;3.97;1.35;;;;;;;;;;7328495;19;153561;-15
2022/06/30 11:34:11;;;;;;;6.53;1.90;;;;;;;;;;7326446;19;161951;-15
2022/06/30 11:36:44;;;;;;;5.43;1.52;;;;;;;;;;7329993;19;162591;-18
2022/06/30 11:39:20;;;;;;;4.90;1.33;;;;;;;;;;7325907;19;154177;-16
2022/06/30 11:42:00;;;;;;;5.03;1.38;;;;;;;;;;7328362;19;153664;-16
2022/06/30 11:44:34;;;;;;;6.60;2.10;;;;;;;;;;7327763;19;161898;-15
2022/06/30 11:47:07;;;;;;;3.55;1.45;;;;;;;;;;7326314;19;162587;-16
2022/06/30 11:49:44;;;;;;;4.28;1.20;;;;;;;;;;7328073;19;154014;-16
2022/06/30 11:52:17;;;;;;;3.28;1.70;;;;;;;;;;7327738;19;153567;-15
2022/06/30 11:54:54;;;;;;;3.55;1.50;;;;;;;;;;7326451;19;161815;-16
2022/06/30 11:57:27;;;;;;;5.32;1.30;;;;;;;;;;7334017;19;162389;-15
2022/06/30 12:00:03;;;;;;;3.13;1.13;;;;;;;;;;7333118;19;154112;-15
2022/06/30 12:02:37;;;;;;;2.75;1.27;;;;;;;;;;7334562;19;153491;-15
2022/06/30 12:05:10;;;;;;;6.88;1.80;;;;;;;;;;7334100;19;161934;-16
2022/06/30 12:07:43;;;;;;;3.35;1.50;;;;;;;;;;7333892;19;162377;-16
2022/06/30 12:10:21;;;;;;;2.75;1.25;;;;;;;;;;7333228;19;154112;-15
2022/06/30 12:12:58;;;;;;;4.20;1.40;;;;;;;;;;7333995;19;153534;-16
2022/06/30 12:15:30;;;;;;;3.95;1.70;;;;;;;;;;7333538;19;161722;-18
2022/06/30 12:18:04;;;;;;;3.25;1.40;;;;;;;;;;7332450;19;162491;-16
2022/06/30 12:20:38;;;;;;;5.18;1.75;;;;;;;;;;7331699;19;154324;-18
2022/06/30 12:23:09;;;;;;;5.03;1.52;;;;;;;;;;7335023;19;153611;-16
2022/06/30 12:25:43;;;;;;;5.65;1.60;;;;;;;;;;7332713;19;161998;-16
2022/06/30 12:28:14;;;;;;;4.40;1.30;;;;;;;;;;7333004;19;162533;-16
2022/06/30 12:30:48;;;;;;;4.60;1.73;;;;;;;;;;7333832;19;154077;-16
2022/06/30 12:33:19;;;;;;;3.38;1.50;;;;;;;;;;7335187;19;153550;-16
2022/06/30 12:35:50;;;;;;;3.13;1.73;;;;;;;;;;7332825;19;162002;-16
2022/06/30 12:38:24;;;;;;;4.18;1.45;;;;;;;;;;7333037;19;162558;-19
2022/06/30 12:40:58;;;;;;;2.00;1.20;;;;;;;;;;7331433;19;154056;-16
2022/06/30 12:43:29;;;;;;;2.58;1.30;;;;;;;;;;7337670;19;153590;-16
2022/06/30 12:46:01;;;;;;;5.32;1.30;;;;;;;;;;7332644;19;161890;-16
2022/06/30 12:48:46;;;;;;;4.97;1.45;;;;;;;;;;7331420;19;162554;-16
2022/06/30 12:51:19;;;;;;;3.92;1.65;;;;;;;;;;7333129;19;154108;-16
2022/06/30 12:54:00;;;;;;;7.22;1.52;;;;;;;;;;7333257;19;153752;-16
2022/06/30 12:56:35;;;;;;;4.68;1.63;;;;;;;;;;7332597;19;161809;-16
2022/06/30 12:59:08;;;;;;;4.93;1.40;;;;;;;;;;7332300;19;162987;-16
2022/06/30 13:01:42;;;;;;;6.57;1.80;;;;;;;;;;7333136;19;154126;-16
2022/06/30 13:04:20;;;;;;;6.05;1.85;;;;;;;;;;7333028;19;153527;-17
2022/06/30 13:06:53;;;;;;;4.32;1.52;;;;;;;;;;7332120;19;162016;-16
2022/06/30 13:09:27;;;;;;;7.82;1.67;;;;;;;;;;7332751;19;162439;-16
2022/06/30 13:12:03;;;;;;;9.02;1.85;;;;;;;;;;7336466;19;154119;-16
2022/06/30 13:14:36;;;;;;;4.13;1.80;;;;;;;;;;7336555;19;153678;-17
2022/06/30 13:17:08;;;;;;;8.18;1.75;;;;;;;;;;7332489;19;161794;-16
2022/06/30 13:19:40;;;;;;;10.88;1.83;;;;;;;;;;7330827;19;162361;-17
2022/06/30 13:22:11;;;;;;;8.80;1.70;;;;;;;;;;7331149;19;154115;-17
2022/06/30 13:24:42;;;;;;;7.40;1.73;;;;;;;;;;7332300;19;153702;-17
2022/06/30 13:27:16;;;;;;;7.85;1.52;;;;;;;;;;7333296;19;162027;-17
2022/06/30 13:29:47;;;;;;;5.07;1.48;;;;;;;;;;7333492;19;162216;-17
2022/06/30 13:32:18;;;;;;;6.15;1.42;;;;;;;;;;7335195;19;154025;-17
2022/06/30 13:34:49;;;;;;;6.03;1.75;;;;;;;;;;7330863;19;153726;-17
2022/06/30 13:37:21;;;;;;;4.82;1.60;;;;;;;;;;7332033;19;161861;-17
2022/06/30 13:39:52;;;;;;;5.20;1.63;;;;;;;;;;7333199;19;162362;-17
2022/06/30 13:42:26;;;;;;;5.97;1.85;;;;;;;;;;7334137;19;154024;-17
2022/06/30 13:44:57;;;;;;;5.97;1.60;;;;;;;;;;7334521;19;153534;-17
2022/06/30 13:47:30;;;;;;;6.88;1.60;;;;;;;;;;7334241;19;161808;-15
2022/06/30 13:50:01;;;;;;;;;;;;;;;;;;7334067;19;162442;-18
2022/06/30 13:52:34;;;;;;;6.55;1.30;;;;;;;;;;7331582;19;154180;-17
2022/06/30 13:55:06;;;;;;;8.70;1.88;;;;;;;;;;7333266;19;153523;-17
2022/06/30 13:57:40;;;;;;;4.93;1.40;;;;;;;;;;7328894;19;162170;-18
2022/06/30 14:00:15;;;;;;;5.22;1.15;;;;;;;;;;7331916;19;162469;-18
2022/06/30 14:02:47;;;;;;;4.97;1.42;;;;;;;;;;7333724;19;154281;-17
2022/06/30 14:05:19;;;;;;;5.25;1.88;;;;;;;;;;7330706;19;153425;-15
2022/06/30 14:07:51;;;;;;;9.77;1.33;;;;;;;;;;7332161;19;161746;-20
2022/06/30 14:10:22;;;;;;;4.57;1.20;;;;;;;;;;7331506;19;162394;-17
2022/06/30 14:12:56;;;;;;;8.18;1.75;;;;;;;;;;7334204;19;154086;-15
2022/06/30 14:15:28;;;;;;;7.20;1.77;;;;;;;;;;7330633;19;153749;-15
2022/06/30 14:17:59;;;;;;;9.60;1.52;;;;;;;;;;7331900;19;163100;-15
2022/06/30 14:20:31;;;;;;;10.23;1.77;;;;;;;;;;7326729;19;162356;-17
2022/06/30 14:23:03;;;;;;;6.28;1.90;;;;;;;;;;7330521;19;154008;-16
2022/06/30 14:25:35;;;;;;;7.35;1.77;;;;;;;;;;7329316;19;153681;-16
2022/06/30 14:28:09;;;;;;;5.03;1.83;;;;;;;;;;7329835;19;162365;-16
2022/06/30 14:30:40;;;;;;;5.90;1.70;;;;;;;;;;7327322;19;162477;-17
2022/06/30 14:33:11;;;;;;;3.80;1.25;;;;;;;;;;7328519;19;154059;-16
2022/06/30 14:35:44;;;;;;;4.28;1.42;;;;;;;;;;7331559;19;153757;-15
2022/06/30 14:38:15;;;;;;;3.05;1.17;;;;;;;;;;7330386;19;162097;-16
2022/06/30 14:40:47;;;;;;;4.60;1.85;;;;;;;;;;7332366;19;162478;-16
2022/06/30 14:43:21;;;;;;;6.55;1.33;;;;;;;;;;7328016;19;154062;-16
2022/06/30 14:45:52;;;;;;;5.53;1.63;;;;;;;;;;7330482;19;153914;-16
2022/06/30 14:48:23;;;;;;;5.60;1.77;;;;;;;;;;7329770;19;162636;-16
2022/06/30 14:50:54;;;;;;;6.38;1.30;;;;;;;;;;7329197;19;162445;-15
2022/06/30 14:53:26;;;;;;;3.38;1.45;;;;;;;;;;7329389;19;154038;-16
2022/06/30 14:55:57;;;;;;;10.00;1.58;;;;;;;;;;7329358;19;154421;-16
2022/06/30 14:58:31;;;;;;;2.22;1.27;;;;;;;;;;7329141;19;161787;-15
2022/06/30 15:01:02;;;;;;;3.92;1.05;;;;;;;;;;7328201;19;162597;-16
2022/06/30 15:03:37;;;;;;;5.70;1.60;;;;;;;;;;7329114;19;154282;-16
2022/06/30 15:06:09;;;;;;;3.20;1.40;;;;;;;;;;7328849;19;153454;-15
2022/06/30 15:08:41;;;;;;;3.58;1.48;;;;;;;;;;7328754;19;161603;-18
2022/06/30 15:11:17;;;;;;;1.60;1.15;;;;;;;;;;7328467;19;162506;-16
2022/06/30 15:13:51;;;;;;;4.05;1.40;;;;;;;;;;7328958;19;154140;-15
2022/06/30 15:16:23;;;;;;;3.63;1.13;;;;;;;;;;7328731;19;153487;-16
2022/06/30 15:18:54;;;;;;;4.57;1.20;;;;;;;;;;7328345;19;162096;-16
2022/06/30 15:24:10;;;;;;;5.13;1.73;;;;;;;;;;7328731;19;154023;-16
2022/06/30 15:26:45;;;;;;;5.45;1.58;;;;;;;;;;7328551;19;153816;-16
2022/06/30 15:29:19;;;;;;;3.20;1.40;;;;;;;;;;7328119;19;162097;-16